Time;durP1;ratioP1;P1;durP2;ratioP2;P2;SDS_P1;SDS_P2;PMS_P1;PMS_P2;Temp;Humidity;BMP_temperature;BMP_pressure;BME280_temperature;BME280_humidity;BME280_pressure;Samples;Min_cycle;Max_cycle;Signal;HPM_P1;HPM_P2
2023/07/20 00:01:52;;;;;;;2.60;1.20;;;;;;;15.44;100.00;99871.08;104815;1259;65866;-64
2023/07/20 00:04:19;;;;;;;2.50;1.30;;;;;;;15.58;100.00;99864.16;104920;1264;71389;-66
2023/07/20 00:06:46;;;;;;;3.90;1.20;;;;;;;15.71;100.00;99862.09;105758;1258;60527;-67
2023/07/20 00:09:13;;;;;;;2.70;1.30;;;;;;;15.84;100.00;99860.76;104567;1259;60534;-65
2023/07/20 00:11:48;;;;;;;3.10;1.30;;;;;;;15.93;100.00;99852.92;105235;1258;73920;-65
2023/07/20 00:14:15;;;;;;;2.40;1.40;;;;;;;16.02;100.00;99853.02;105227;1260;65540;-64
2023/07/20 00:16:43;;;;;;;3.40;1.30;;;;;;;16.08;100.00;99851.90;105235;1263;72401;-68
2023/07/20 00:19:10;;;;;;;3.50;1.60;;;;;;;16.13;100.00;99847.08;104533;1259;61175;-65
2023/07/20 00:21:40;;;;;;;5.10;1.20;;;;;;;16.17;100.00;99845.42;104862;1263;60454;-65
2023/07/20 00:24:07;;;;;;;4.40;1.20;;;;;;;16.20;100.00;99845.30;104897;1258;74007;-64
2023/07/20 00:26:34;;;;;;;2.50;1.20;;;;;;;16.23;100.00;99847.71;105095;1260;67170;-64
2023/07/20 00:29:01;;;;;;;2.70;1.30;;;;;;;16.25;100.00;99846.91;105271;1258;73286;-68
2023/07/20 00:31:29;;;;;;;3.40;1.60;;;;;;;16.26;100.00;99851.79;104797;1263;60573;-64
2023/07/20 00:33:56;;;;;;;2.80;1.40;;;;;;;16.27;100.00;99849.75;105109;1258;60425;-64
2023/07/20 00:36:23;;;;;;;3.50;1.50;;;;;;;16.28;100.00;99851.51;104990;1261;72735;-64
2023/07/20 00:38:51;;;;;;;3.20;1.60;;;;;;;16.29;100.00;99849.59;105018;1259;67152;-65
2023/07/20 00:41:18;;;;;;;2.80;1.00;;;;;;;16.29;100.00;99847.45;104838;1260;73178;-64
2023/07/20 00:43:44;;;;;;;2.80;1.30;;;;;;;16.27;100.00;99847.02;104918;1259;60390;-64
2023/07/20 00:46:11;;;;;;;2.60;1.40;;;;;;;16.24;100.00;99845.06;104896;1258;60336;-64
2023/07/20 00:48:39;;;;;;;4.10;1.30;;;;;;;16.20;100.00;99848.17;104942;1265;72757;-67
2023/07/20 00:51:06;;;;;;;4.70;1.60;;;;;;;16.16;100.00;99848.08;104802;1261;67734;-64
2023/07/20 00:53:33;;;;;;;4.10;1.40;;;;;;;16.12;100.00;99855.83;104760;1261;72977;-64
2023/07/20 00:56:01;;;;;;;2.80;1.30;;;;;;;16.10;100.00;99856.80;104953;1264;60445;-64
2023/07/20 00:58:28;;;;;;;3.50;1.90;;;;;;;16.10;100.00;99857.21;104841;1259;60337;-65
2023/07/20 01:00:55;;;;;;;4.60;1.80;;;;;;;16.11;100.00;99861.45;104905;1259;73836;-68
2023/07/20 01:03:22;;;;;;;3.80;1.50;;;;;;;16.11;100.00;99860.88;104924;1259;67923;-63
2023/07/20 01:06:12;;;;;;;2.50;1.10;;;;;;;16.10;100.00;99864.38;104859;1263;72692;-64
2023/07/20 01:08:47;;;;;;;2.80;1.10;;;;;;;16.07;100.00;99864.39;105488;1260;60482;-66
2023/07/20 01:11:37;;;;;;;3.60;1.50;;;;;;;16.00;100.00;99868.91;105003;1260;60543;-64
2023/07/20 01:14:04;;;;;;;3.00;1.10;;;;;;;15.94;100.00;99871.56;105285;1260;72662;-68
2023/07/20 01:16:33;;;;;;;3.70;1.80;;;;;;;15.88;100.00;99871.48;104530;1259;67788;-64
2023/07/20 01:19:00;;;;;;;3.90;1.50;;;;;;;15.85;100.00;99868.04;104960;1259;72629;-63
2023/07/20 01:21:32;;;;;;;3.40;1.30;;;;;;;15.81;100.00;99870.10;104605;1259;62021;-64
2023/07/20 01:24:09;;;;;;;3.20;1.40;;;;;;;15.78;100.00;99876.66;104830;1259;60645;-68
2023/07/20 01:27:10;;;;;;;4.60;1.30;;;;;;;15.74;100.00;99878.98;105056;1258;73591;-64
2023/07/20 01:29:43;;;;;;;2.70;1.30;;;;;;;15.69;100.00;99882.81;104631;1261;66748;-68
2023/07/20 01:32:10;;;;;;;2.20;1.30;;;;;;;15.67;100.00;99876.59;104954;1259;72678;-63
2023/07/20 01:34:37;;;;;;;4.30;1.40;;;;;;;15.63;100.00;99879.69;104909;1262;60494;-64
2023/07/20 01:37:04;;;;;;;3.20;1.40;;;;;;;15.58;100.00;99880.39;104904;1260;60448;-65
2023/07/20 01:39:32;;;;;;;4.40;1.60;;;;;;;15.54;100.00;99876.45;105241;1261;72903;-67
2023/07/20 01:41:59;;;;;;;3.10;1.50;;;;;;;15.51;100.00;99876.42;104676;1266;67824;-63
2023/07/20 01:44:28;;;;;;;4.00;1.80;;;;;;;15.48;100.00;99881.52;104756;1259;72636;-63
2023/07/20 01:46:55;;;;;;;4.20;1.50;;;;;;;15.46;100.00;99877.47;104858;1259;61906;-63
2023/07/20 01:49:22;;;;;;;45.40;19.40;;;;;;;15.44;100.00;99872.41;105416;1260;60455;-67
2023/07/20 01:51:49;;;;;;;109.50;55.00;;;;;;;15.41;100.00;99870.35;104983;1262;73825;-64
2023/07/20 01:54:16;;;;;;;22.00;10.00;;;;;;;15.37;100.00;99870.57;104933;1259;67777;-63
2023/07/20 01:56:43;;;;;;;15.90;7.10;;;;;;;15.32;100.00;99866.23;104843;1260;72893;-63
2023/07/20 01:59:10;;;;;;;11.50;5.70;;;;;;;15.28;100.00;99870.80;105009;1259;60557;-67
2023/07/20 02:01:38;;;;;;;12.00;5.60;;;;;;;15.23;100.00;99865.86;104852;1259;60397;-62
2023/07/20 02:04:05;;;;;;;10.70;5.20;;;;;;;15.20;100.00;99862.67;105048;1259;73693;-66
2023/07/20 02:06:33;;;;;;;11.20;5.70;;;;;;;15.21;100.00;99862.05;104819;1259;66036;-62
2023/07/20 02:08:59;;;;;;;10.90;5.30;;;;;;;15.28;100.00;99861.84;104897;1259;72654;-65
2023/07/20 02:11:27;;;;;;;14.80;6.00;;;;;;;15.43;100.00;99864.10;105024;1260;60386;-63
2023/07/20 02:13:54;;;;;;;16.20;7.10;;;;;;;15.65;100.00;99866.89;104865;1261;60649;-65
2023/07/20 02:16:22;;;;;;;66.30;41.20;;;;;;;15.91;100.00;99863.67;104906;1259;72883;-63
2023/07/20 02:18:50;;;;;;;39.10;21.20;;;;;;;16.24;100.00;99864.45;104958;1258;66012;-64
2023/07/20 02:21:17;;;;;;;29.30;15.70;;;;;;;16.60;100.00;99864.48;104792;1260;71708;-64
2023/07/20 02:23:44;;;;;;;27.70;15.30;;;;;;;17.00;100.00;99863.98;105497;1261;61021;-66
2023/07/20 02:26:11;;;;;;;23.00;13.10;;;;;;;17.45;100.00;99863.70;105069;1260;60375;-64
2023/07/20 02:28:38;;;;;;;24.30;13.60;;;;;;;17.92;100.00;99864.11;104962;1259;73790;-63
2023/07/20 02:31:05;;;;;;;28.90;17.50;;;;;;;18.39;100.00;99855.07;104797;1259;65676;-66
2023/07/20 02:33:32;;;;;;;27.30;16.00;;;;;;;18.87;100.00;99855.67;104877;1262;72527;-66
2023/07/20 02:35:59;;;;;;;30.10;16.10;;;;;;;19.23;100.00;99850.92;105083;1262;61572;-66
2023/07/20 02:38:26;;;;;;;28.30;15.30;;;;;;;19.42;100.00;99845.08;104980;1260;60330;-66
2023/07/20 02:40:54;;;;;;;31.60;15.80;;;;;;;19.64;100.00;99837.33;104929;1259;73870;-65
2023/07/20 02:43:20;;;;;;;31.50;16.40;;;;;;;20.04;100.00;99837.55;105032;1259;66058;-65
2023/07/20 02:45:48;;;;;;;28.10;15.80;;;;;;;20.33;100.00;99830.96;104909;1259;72766;-63
2023/07/20 02:48:15;;;;;;;29.00;18.10;;;;;;;20.31;100.00;99830.63;104926;1264;60866;-63
2023/07/20 02:50:44;;;;;;;39.00;19.60;;;;;;;20.15;100.00;99834.05;105086;1258;265383;-63
2023/07/20 02:53:11;;;;;;;34.80;18.40;;;;;;;20.03;100.00;99840.02;105101;1259;73770;-67
2023/07/20 02:55:38;;;;;;;29.90;17.10;;;;;;;20.11;100.00;99842.80;104862;1263;66698;-63
2023/07/20 02:58:05;;;;;;;31.40;16.80;;;;;;;20.49;100.00;99834.70;105194;1263;72741;-64
2023/07/20 03:00:32;;;;;;;29.90;18.40;;;;;;;21.13;100.00;99829.70;104739;1262;60459;-63
2023/07/20 03:02:59;;;;;;;34.60;20.00;;;;;;;21.77;100.00;99829.09;104818;1260;60378;-65
2023/07/20 03:05:27;;;;;;;33.10;20.00;;;;;;;22.06;100.00;99828.48;104906;1264;74355;-65
2023/07/20 03:07:55;;;;;;;33.70;20.20;;;;;;;22.50;100.00;99825.54;105049;1261;66483;-64
2023/07/20 03:10:23;;;;;;;29.60;19.40;;;;;;;23.01;100.00;99823.80;104889;1260;72472;-66
2023/07/20 03:12:49;;;;;;;27.90;18.50;;;;;;;23.43;100.00;99825.27;104828;1262;60819;-64
2023/07/20 03:15:17;;;;;;;33.10;16.60;;;;;;;23.76;100.00;99823.19;105136;1259;60869;-69
2023/07/20 03:17:44;;;;;;;25.90;15.00;;;;;;;24.08;100.00;99825.80;104875;1258;72541;-63
2023/07/20 03:20:12;;;;;;;53.40;41.00;;;;;;;24.22;100.00;99830.65;104879;1259;68428;-67
2023/07/20 03:22:40;;;;;;;34.70;25.10;;;;;;;24.12;100.00;99837.05;104600;1264;71528;-64
2023/07/20 03:25:08;;;;;;;34.60;22.60;;;;;;;23.93;100.00;99841.56;104915;1263;60491;-63
2023/07/20 03:27:35;;;;;;;26.40;16.20;;;;;;;23.78;100.00;99844.80;105107;1258;60442;-67
2023/07/20 03:30:03;;;;;;;24.50;14.90;;;;;;;23.65;100.00;99846.75;104702;1261;74326;-63
2023/07/20 03:32:31;;;;;;;20.10;12.10;;;;;;;23.47;100.00;99851.14;104961;1261;66024;-64
2023/07/20 03:34:58;;;;;;;22.60;12.40;;;;;;;23.26;100.00;99852.95;104813;1261;72695;-63
2023/07/20 03:37:25;;;;;;;20.60;13.00;;;;;;;23.03;100.00;99849.85;104887;1261;60439;-65
2023/07/20 03:39:52;;;;;;;27.20;15.20;;;;;;;22.83;100.00;99852.43;104796;1260;61004;-63
2023/07/20 03:42:20;;;;;;;24.90;14.40;;;;;;;22.64;100.00;99851.23;104916;1263;72962;-69
2023/07/20 03:44:47;;;;;;;21.80;14.60;;;;;;;22.44;100.00;99850.95;104884;1261;67507;-66
2023/07/20 03:47:14;;;;;;;27.70;16.40;;;;;;;22.29;100.00;99850.59;105004;1261;72664;-66
2023/07/20 03:49:41;;;;;;;24.70;15.70;;;;;;;22.16;100.00;99851.82;104823;1259;60345;-67
2023/07/20 03:52:09;;;;;;;24.60;15.60;;;;;;;22.06;100.00;99852.20;104846;1259;60809;-65
2023/07/20 03:54:36;;;;;;;25.50;14.80;;;;;;;21.96;100.00;99861.88;104879;1262;73063;-65
2023/07/20 03:57:03;;;;;;;25.90;16.50;;;;;;;21.83;100.00;99868.09;104874;1259;67198;-65
2023/07/20 03:59:30;;;;;;;26.70;16.60;;;;;;;21.70;100.00;99869.38;104873;1259;71949;-66
2023/07/20 04:01:57;;;;;;;23.60;17.30;;;;;;;21.55;100.00;99871.45;104878;1262;60452;-65
2023/07/20 04:04:25;;;;;;;22.30;13.60;;;;;;;21.39;100.00;99871.02;105424;1263;60451;-67
2023/07/20 04:06:51;;;;;;;25.40;13.60;;;;;;;21.20;100.00;99867.09;104910;1262;73960;-65
2023/07/20 04:09:19;;;;;;;26.30;14.40;;;;;;;21.05;100.00;99867.33;104999;1259;67089;-66
2023/07/20 04:11:46;;;;;;;27.60;14.10;;;;;;;20.91;100.00;99871.05;105169;1259;71562;-69
2023/07/20 04:14:13;;;;;;;24.80;14.40;;;;;;;20.77;100.00;99873.80;104882;1260;60550;-68
2023/07/20 04:16:40;;;;;;;29.20;16.80;;;;;;;20.62;100.00;99879.03;105255;1259;60451;-65
2023/07/20 04:19:08;;;;;;;29.90;15.70;;;;;;;20.49;100.00;99884.00;104828;1258;72648;-65
2023/07/20 04:21:40;;;;;;;32.50;17.90;;;;;;;20.35;100.00;99882.06;105109;1259;67214;-65
2023/07/20 04:24:08;;;;;;;30.30;18.10;;;;;;;20.26;100.00;99881.16;105015;1260;72575;-65
2023/07/20 04:26:35;;;;;;;30.80;17.60;;;;;;;20.20;100.00;99875.93;104828;1258;60509;-66
2023/07/20 04:29:03;;;;;;;33.00;18.50;;;;;;;20.14;100.00;99878.86;104902;1257;60453;-65
2023/07/20 04:31:35;;;;;;;32.20;16.70;;;;;;;20.06;100.00;99879.96;104700;1259;73291;-65
2023/07/20 04:34:03;;;;;;;29.30;15.90;;;;;;;20.01;100.00;99882.38;105114;1259;66555;-65
2023/07/20 04:36:30;;;;;;;32.80;18.30;;;;;;;19.90;100.00;99884.00;105490;1260;73525;-68
2023/07/20 04:38:57;;;;;;;34.90;19.30;;;;;;;19.83;100.00;99889.08;104856;1264;60959;-64
2023/07/20 04:41:25;;;;;;;33.50;18.90;;;;;;;19.80;100.00;99882.21;104889;1263;60448;-64
2023/07/20 04:43:54;;;;;;;33.50;19.60;;;;;;;19.80;100.00;99885.13;104732;1263;72845;-66
2023/07/20 04:46:27;;;;;;;32.10;18.60;;;;;;;19.81;100.00;99886.25;105112;1264;67257;-68
2023/07/20 04:48:55;;;;;;;37.60;23.30;;;;;;;19.86;100.00;99888.50;104917;1260;73115;-64
2023/07/20 04:51:23;;;;;;;38.40;21.80;;;;;;;19.91;100.00;99885.96;104845;1260;60515;-64
2023/07/20 04:53:53;;;;;;;33.00;21.20;;;;;;;20.09;100.00;99881.36;104750;1262;60337;-68
2023/07/20 04:56:23;;;;;;;31.10;19.20;;;;;;;20.54;100.00;99879.68;104899;1262;74019;-65
2023/07/20 04:58:52;;;;;;;33.10;19.20;;;;;;;21.02;100.00;99869.85;104793;1259;67746;-65
2023/07/20 05:01:20;;;;;;;35.30;18.80;;;;;;;21.39;100.00;99873.23;104888;1262;73087;-64
2023/07/20 05:03:47;;;;;;;40.50;20.40;;;;;;;21.77;100.00;99865.30;104947;1261;60566;-68
2023/07/20 05:06:15;;;;;;;38.40;21.10;;;;;;;22.31;100.00;99863.36;105257;1260;61351;-68
2023/07/20 05:08:42;;;;;;;37.90;22.00;;;;;;;22.95;100.00;99862.63;104956;1259;72640;-65
2023/07/20 05:11:10;;;;;;;34.80;20.50;;;;;;;23.67;100.00;99866.30;104930;1260;65919;-65
2023/07/20 05:13:37;;;;;;;35.00;21.60;;;;;;;24.59;100.00;99864.12;104857;1259;73017;-67
2023/07/20 05:16:04;;;;;;;41.60;21.00;;;;;;;25.48;100.00;99859.04;104766;1263;60470;-65
2023/07/20 05:18:32;;;;;;;28.30;18.30;;;;;;;26.09;100.00;99863.20;104715;1259;60451;-64
2023/07/20 05:20:59;;;;;;;28.50;19.10;;;;;;;26.42;100.00;99859.32;105020;1259;72327;-63
2023/07/20 05:23:27;;;;;;;31.50;18.80;;;;;;;26.59;100.00;99857.63;104678;1264;65994;-63
2023/07/20 05:25:58;;;;;;;27.10;18.50;;;;;;;27.03;100.00;99853.52;104989;1259;73413;-65
2023/07/20 05:28:26;;;;;;;30.20;18.40;;;;;;;27.80;100.00;99855.38;104986;1263;60391;-66
2023/07/20 05:30:53;;;;;;;24.80;15.70;;;;;;;28.37;99.67;99850.08;104924;1259;60324;-65
2023/07/20 05:33:20;;;;;;;28.90;18.20;;;;;;;28.79;92.58;99845.58;105114;1259;74301;-63
2023/07/20 05:35:48;;;;;;;22.10;14.80;;;;;;;29.15;88.23;99848.90;105045;1262;66022;-63
2023/07/20 05:38:15;;;;;;;20.60;13.40;;;;;;;29.54;80.66;99843.73;104883;1259;72752;-63
2023/07/20 05:40:44;;;;;;;18.50;13.40;;;;;;;29.86;74.20;99839.92;104883;1263;60526;-63
2023/07/20 05:43:11;;;;;;;18.70;12.70;;;;;;;30.24;68.85;99839.72;104860;1264;60454;-62
2023/07/20 05:45:43;;;;;;;22.40;12.70;;;;;;;30.80;64.66;99838.16;105016;1259;73615;-69
2023/07/20 05:48:11;;;;;;;;;;;;;;;31.54;57.91;99834.48;104916;1259;65785;-62
2023/07/20 05:50:46;;;;;;;11.70;8.50;;;;;;;32.39;52.18;99834.42;105625;1262;72773;-65
2023/07/20 05:53:13;;;;;;;15.80;8.90;;;;;;;33.34;46.45;99832.52;104860;1259;60893;-63
2023/07/20 05:55:40;;;;;;;16.10;10.20;;;;;;;34.26;42.61;99831.55;105049;1259;60468;-65
2023/07/20 05:58:07;;;;;;;12.40;7.50;;;;;;;35.05;39.51;99826.86;105201;1259;65126;-63
2023/07/20 06:00:34;;;;;;;16.20;8.40;;;;;;;35.78;36.95;99825.75;105032;1262;60477;-66
2023/07/20 06:03:01;;;;;;;10.80;6.40;;;;;;;36.40;34.51;99832.29;104888;1260;63898;-63
2023/07/20 06:05:29;;;;;;;8.50;5.90;;;;;;;36.87;32.89;99836.46;105920;1259;60438;-64
2023/07/20 06:07:58;;;;;;;10.60;6.10;;;;;;;37.23;31.39;99835.01;106591;1262;60382;-62
2023/07/20 06:10:25;;;;;;;8.80;7.10;;;;;;;37.57;30.93;99832.00;105521;1259;64028;-66
2023/07/20 06:12:52;;;;;;;10.30;6.00;;;;;;;38.02;30.33;99824.19;105041;1260;60452;-63
2023/07/20 06:15:31;;;;;;;9.60;6.50;;;;;;;38.42;29.37;99818.61;104949;1259;63083;-64
2023/07/20 06:17:58;;;;;;;7.60;6.70;;;;;;;38.66;28.74;99820.19;104902;1259;60513;-63
2023/07/20 06:20:26;;;;;;;9.00;6.10;;;;;;;38.89;28.63;99820.05;105243;1264;60467;-65
2023/07/20 06:22:53;;;;;;;9.10;6.60;;;;;;;39.22;28.36;99818.10;104945;1259;63986;-64
2023/07/20 06:25:21;;;;;;;8.60;6.60;;;;;;;39.57;27.49;99816.20;104734;1260;59283;-65
2023/07/20 06:27:50;;;;;;;5.90;4.60;;;;;;;39.80;26.58;99818.23;104888;1260;64662;-63
2023/07/20 06:30:17;;;;;;;7.00;4.80;;;;;;;39.96;26.08;99817.57;104815;1259;60534;-64
2023/07/20 06:32:44;;;;;;;9.80;5.10;;;;;;;40.00;25.75;99817.48;104840;1258;60355;-63
2023/07/20 06:35:12;;;;;;;7.70;5.40;;;;;;;39.94;25.84;99815.63;104914;1259;64219;-64
2023/07/20 06:37:39;;;;;;;5.90;4.70;;;;;;;39.87;25.99;99816.48;104708;1263;60191;-62
2023/07/20 06:40:08;;;;;;;6.50;4.50;;;;;;;39.94;25.69;99813.75;104831;1259;62843;-64
2023/07/20 06:42:39;;;;;;;4.30;3.20;;;;;;;39.82;25.08;99809.88;104795;1259;60439;-62
2023/07/20 06:45:09;;;;;;;4.50;3.40;;;;;;;39.65;25.78;99812.36;104961;1260;60530;-61
2023/07/20 06:47:39;;;;;;;5.00;3.20;;;;;;;39.81;25.41;99814.88;105253;1260;65063;-65
2023/07/20 06:50:07;;;;;;;5.70;3.40;;;;;;;40.05;24.98;99808.13;105327;1259;60435;-64
2023/07/20 06:52:34;;;;;;;5.10;3.60;;;;;;;40.22;24.77;99809.58;104883;1259;62888;-62
2023/07/20 06:55:01;;;;;;;4.20;3.20;;;;;;;40.23;24.98;99806.45;104899;1265;60372;-63
2023/07/20 06:57:32;;;;;;;10.50;3.60;;;;;;;40.23;24.67;99802.33;104847;1263;60429;-62
2023/07/20 06:59:59;;;;;;;3.90;2.70;;;;;;;40.18;25.00;99798.76;105056;1259;64768;-65
2023/07/20 07:02:26;;;;;;;4.40;3.40;;;;;;;40.25;24.72;99794.12;104871;1259;60512;-63
2023/07/20 07:04:53;;;;;;;4.80;3.50;;;;;;;40.24;23.96;99791.16;104767;1259;62622;-63
2023/07/20 07:07:27;;;;;;;3.70;2.60;;;;;;;40.11;24.30;99787.51;104967;1263;60423;-63
2023/07/20 07:09:54;;;;;;;4.10;2.40;;;;;;;40.00;24.13;99782.86;105109;1261;60758;-63
2023/07/20 07:12:21;;;;;;;4.20;2.50;;;;;;;39.91;24.36;99780.31;104819;1265;65882;-63
2023/07/20 07:14:48;;;;;;;3.10;2.30;;;;;;;40.02;24.27;99780.59;104976;1258;60447;-62
2023/07/20 07:17:15;;;;;;;2.70;2.10;;;;;;;40.08;22.93;99776.69;104704;1259;62868;-66
2023/07/20 07:19:46;;;;;;;4.90;2.80;;;;;;;39.88;23.00;99774.33;104868;1262;60429;-61
2023/07/20 07:22:16;;;;;;;;;;;;;;;39.73;23.02;99774.80;104881;1259;60820;-62
2023/07/20 07:24:43;;;;;;;4.40;2.30;;;;;;;39.67;23.03;99775.43;104958;1262;63961;-61
2023/07/20 07:27:10;;;;;;;3.10;2.50;;;;;;;39.53;22.85;99766.15;105377;1262;60455;-65
2023/07/20 07:29:37;;;;;;;4.30;2.40;;;;;;;39.41;23.38;99763.60;104865;1260;64724;-63
2023/07/20 07:32:05;;;;;;;3.60;2.20;;;;;;;39.39;23.43;99766.56;105085;1260;60514;-65
2023/07/20 07:34:34;;;;;;;2.80;2.20;;;;;;;39.18;23.68;99766.38;104907;1262;60444;-63
2023/07/20 07:37:01;;;;;;;3.30;2.10;;;;;;;38.92;23.82;99768.52;104967;1264;64257;-64
2023/07/20 07:39:29;;;;;;;3.80;2.40;;;;;;;38.76;24.46;99768.47;104918;1263;60355;-63
2023/07/20 07:42:01;;;;;;;3.40;2.30;;;;;;;38.73;25.09;99766.59;104955;1262;64551;-65
2023/07/20 07:44:29;;;;;;;2.90;1.90;;;;;;;38.62;24.83;99765.31;104878;1262;60424;-64
2023/07/20 07:46:56;;;;;;;3.40;1.90;;;;;;;38.29;25.26;99761.04;105325;1260;60457;-65
2023/07/20 07:49:23;;;;;;;2.60;1.90;;;;;;;38.04;25.64;99759.13;104912;1259;65103;-65
2023/07/20 07:51:50;;;;;;;4.10;2.00;;;;;;;37.86;25.87;99757.30;104875;1259;60431;-66
2023/07/20 07:54:18;;;;;;;4.20;2.00;;;;;;;37.78;26.08;99753.91;104824;1259;62805;-65
2023/07/20 07:56:46;;;;;;;4.40;2.10;;;;;;;37.78;26.58;99753.98;104948;1259;60466;-63
2023/07/20 07:59:13;;;;;;;3.50;1.80;;;;;;;37.88;26.27;99753.67;104929;1263;60536;-64
2023/07/20 08:01:40;;;;;;;4.20;1.90;;;;;;;37.87;26.27;99751.73;104846;1264;65143;-64
2023/07/20 08:04:07;;;;;;;2.40;1.70;;;;;;;37.95;26.40;99751.16;104919;1262;60358;-66
2023/07/20 08:06:35;;;;;;;4.00;2.20;;;;;;;37.99;27.09;99750.95;105118;1259;62820;-65
2023/07/20 08:09:03;;;;;;;2.80;1.80;;;;;;;38.03;27.45;99756.56;105051;1262;60367;-67
2023/07/20 08:11:33;;;;;;;5.10;1.80;;;;;;;38.20;27.39;99754.23;104849;1260;60356;-64
2023/07/20 08:14:00;;;;;;;3.80;1.90;;;;;;;38.35;26.45;99757.98;105104;1260;65296;-67
2023/07/20 08:16:28;;;;;;;2.40;1.70;;;;;;;38.42;25.94;99759.33;104822;1261;60511;-65
2023/07/20 08:18:56;;;;;;;5.20;2.30;;;;;;;38.39;26.15;99759.95;105578;1264;62777;-67
2023/07/20 08:21:23;;;;;;;3.80;1.80;;;;;;;38.44;26.10;99766.98;105060;1265;60435;-64
2023/07/20 08:23:50;;;;;;;3.80;2.30;;;;;;;38.54;26.50;99766.84;105434;1264;60517;-67
2023/07/20 08:26:17;;;;;;;4.50;1.80;;;;;;;38.60;26.19;99767.09;105009;1263;63988;-66
2023/07/20 08:28:48;;;;;;;6.10;2.10;;;;;;;38.57;25.70;99767.55;105500;1262;60351;-67
2023/07/20 08:31:15;;;;;;;5.20;2.20;;;;;;;38.57;26.02;99765.45;105098;1260;62515;-65
2023/07/20 08:33:42;;;;;;;3.40;2.00;;;;;;;38.65;26.36;99762.36;105242;1265;60565;-65
2023/07/20 08:36:09;;;;;;;3.90;1.90;;;;;;;38.70;26.68;99758.34;105577;1260;60488;-67
2023/07/20 08:38:38;;;;;;;3.80;2.00;;;;;;;38.77;25.73;99759.89;105558;1262;65107;-65
2023/07/20 08:41:05;;;;;;;5.70;2.10;;;;;;;38.67;25.61;99758.09;105248;1258;60467;-65
2023/07/20 08:43:33;;;;;;;4.30;2.30;;;;;;;38.49;25.76;99754.68;105117;1259;63784;-64
2023/07/20 08:46:00;;;;;;;3.60;1.90;;;;;;;38.32;26.00;99757.95;105204;1259;60547;-65
2023/07/20 08:48:27;;;;;;;5.10;2.10;;;;;;;38.37;26.19;99756.27;105227;1264;60512;-66
2023/07/20 08:50:55;;;;;;;2.70;1.90;;;;;;;38.55;26.06;99758.44;105263;1259;63974;-65
2023/07/20 08:53:22;;;;;;;3.40;2.00;;;;;;;38.51;25.72;99760.29;105118;1265;60340;-64
2023/07/20 08:55:51;;;;;;;4.30;2.30;;;;;;;38.17;25.57;99755.62;105129;1259;62821;-64
2023/07/20 08:58:18;;;;;;;4.10;1.60;;;;;;;37.80;26.24;99751.20;105534;1259;61177;-65
2023/07/20 09:00:45;;;;;;;9.30;2.20;;;;;;;37.69;26.64;99751.83;105003;1259;60630;-64
2023/07/20 09:03:14;;;;;;;4.80;2.40;;;;;;;37.81;27.32;99747.23;105444;1263;65614;-66
2023/07/20 09:05:41;;;;;;;3.50;2.20;;;;;;;38.07;27.13;99741.19;105025;1259;67214;-65
2023/07/20 09:08:08;;;;;;;4.10;2.30;;;;;;;38.30;26.09;99732.74;105130;1259;64495;-65
2023/07/20 09:10:36;;;;;;;4.50;2.50;;;;;;;38.43;25.81;99740.66;105248;1263;60442;-66
2023/07/20 09:13:04;;;;;;;8.10;2.80;;;;;;;38.22;25.12;99739.23;105240;1262;60371;-64
2023/07/20 09:15:32;;;;;;;6.10;2.10;;;;;;;37.75;25.81;99740.60;105364;1259;63880;-66
2023/07/20 09:18:01;;;;;;;3.80;2.80;;;;;;;37.31;26.13;99740.64;105334;1262;60611;-64
2023/07/20 09:20:28;;;;;;;4.40;2.20;;;;;;;36.81;26.80;99739.08;105411;1262;62877;-66
2023/07/20 09:22:55;;;;;;;6.80;2.80;;;;;;;36.26;27.57;99744.54;105397;1259;60422;-64
2023/07/20 09:25:22;;;;;;;4.90;3.00;;;;;;;35.72;28.34;99748.19;105452;1260;60546;-64
2023/07/20 09:27:50;;;;;;;6.10;3.60;;;;;;;35.19;29.93;99752.12;105205;1259;65892;-64
2023/07/20 09:30:19;;;;;;;5.40;3.60;;;;;;;34.62;30.99;99755.39;104972;1259;60464;-65
2023/07/20 09:32:47;;;;;;;6.20;3.30;;;;;;;33.97;32.47;99755.45;104658;1259;64431;-63
2023/07/20 09:35:18;;;;;;;6.20;3.30;;;;;;;33.37;35.02;99759.42;104777;1264;60451;-61
2023/07/20 09:37:54;;;;;;;4.10;2.60;;;;;;;33.08;38.14;99770.13;104855;1259;60534;-65
2023/07/20 09:40:42;;;;;;;6.60;3.20;;;;;;;33.11;39.54;99763.33;104969;1265;73690;-63
2023/07/20 09:43:12;;;;;;;4.50;2.70;;;;;;;33.19;40.00;99756.67;105476;1259;67317;-63
2023/07/20 09:45:42;;;;;;;4.30;2.90;;;;;;;33.34;41.28;99751.09;105140;1259;72518;-67
2023/07/20 09:48:12;;;;;;;4.30;3.00;;;;;;;33.61;41.20;99745.53;104868;1262;60447;-63
2023/07/20 09:50:48;;;;;;;4.50;2.90;;;;;;;33.99;41.33;99739.98;104859;1264;60413;-62
2023/07/20 09:53:15;;;;;;;4.60;2.90;;;;;;;34.38;40.32;99744.45;104672;1259;65358;-66
2023/07/20 09:55:50;;;;;;;4.10;3.00;;;;;;;34.61;39.84;99744.08;105486;1261;65955;-61
2023/07/20 09:58:17;;;;;;;5.70;3.10;;;;;;;34.74;39.93;99743.09;104694;1265;62841;-62
2023/07/20 10:00:47;;;;;;;4.60;3.00;;;;;;;34.85;41.51;99743.60;105156;1263;60552;-64
2023/07/20 10:03:19;;;;;;;4.90;3.10;;;;;;;34.92;40.71;99743.59;105280;1260;59151;-67
2023/07/20 10:05:56;;;;;;;4.50;2.70;;;;;;;34.94;40.76;99743.54;105081;1259;65313;-63
2023/07/20 10:08:26;;;;;;;4.30;3.00;;;;;;;34.87;40.36;99741.87;104717;1265;60509;-64
2023/07/20 10:10:57;;;;;;;7.10;2.50;;;;;;;34.61;40.13;99741.30;104715;1265;64010;-68
2023/07/20 10:13:28;;;;;;;4.30;2.80;;;;;;;34.41;42.43;99737.09;104891;1265;60541;-64
2023/07/20 10:16:05;;;;;;;5.00;3.10;;;;;;;34.49;43.09;99739.81;105721;1270;60352;-63
2023/07/20 10:18:48;;;;;;;3.40;2.60;;;;;;;34.71;43.05;99743.66;104669;1266;65268;-65
2023/07/20 10:21:15;;;;;;;6.50;3.30;;;;;;;34.93;42.16;99738.86;104965;1265;67869;-65
2023/07/20 10:23:45;;;;;;;5.20;3.50;;;;;;;34.90;41.67;99734.80;104782;1265;63958;-66
2023/07/20 10:26:12;;;;;;;4.70;3.00;;;;;;;34.70;43.20;99727.24;104927;1259;60442;-64
2023/07/20 10:28:39;;;;;;;5.00;3.20;;;;;;;34.42;44.96;99723.42;105329;1260;60474;-65
2023/07/20 10:31:10;;;;;;;4.30;3.20;;;;;;;34.02;45.68;99724.83;104895;1260;63838;-64
2023/07/20 10:33:38;;;;;;;4.50;3.40;;;;;;;33.55;49.70;99728.45;105077;1265;65866;-64
2023/07/20 10:36:06;;;;;;;5.50;3.60;;;;;;;33.15;52.35;99729.02;105064;1264;71269;-64
2023/07/20 10:38:47;;;;;;;6.00;3.60;;;;;;;32.86;57.34;99741.03;105002;1263;60555;-67
2023/07/20 10:41:29;;;;;;;5.20;4.20;;;;;;;32.65;63.31;99735.54;104834;1265;60903;-64
2023/07/20 10:44:01;;;;;;;6.90;4.60;;;;;;;32.53;63.45;99742.54;104665;1263;72771;-66
2023/07/20 10:46:38;;;;;;;6.30;4.60;;;;;;;32.35;63.43;99743.83;105016;1263;60445;-66
2023/07/20 10:49:07;;;;;;;5.50;4.50;;;;;;;32.13;66.46;99748.60;104915;1264;71299;-64
2023/07/20 10:51:44;;;;;;;6.80;4.60;;;;;;;32.04;70.01;99746.94;105121;1263;60456;-68
2023/07/20 10:54:17;;;;;;;5.70;3.90;;;;;;;32.01;72.49;99747.08;105210;1264;60499;-67
2023/07/20 10:56:47;;;;;;;5.40;3.80;;;;;;;31.93;70.88;99743.59;105214;1261;73695;-64
2023/07/20 10:59:32;;;;;;;6.80;3.80;;;;;;;31.84;73.00;99739.52;104701;1263;67034;-65
2023/07/20 11:02:01;;;;;;;7.30;5.10;;;;;;;31.86;74.93;99736.98;104565;1262;71335;-66
2023/07/20 11:04:45;;;;;;;6.30;4.80;;;;;;;31.87;75.89;99740.02;104886;1264;60519;-64
2023/07/20 11:07:16;;;;;;;6.50;4.40;;;;;;;31.88;74.55;99740.59;104669;1259;60789;-67
2023/07/20 11:09:43;;;;;;;5.80;4.10;;;;;;;31.88;72.85;99738.83;105160;1265;74613;-68
2023/07/20 11:12:17;;;;;;;7.20;3.80;;;;;;;31.79;73.73;99735.76;104665;1265;66147;-64
2023/07/20 11:14:54;;;;;;;20.90;6.30;;;;;;;31.69;77.20;99736.98;104911;1260;72491;-64
2023/07/20 11:17:22;;;;;;;5.20;3.90;;;;;;;31.64;81.45;99739.45;104930;1260;61037;-65
2023/07/20 11:19:50;;;;;;;6.20;4.50;;;;;;;31.64;81.91;99739.84;105189;1267;60389;-64
2023/07/20 11:22:21;;;;;;;4.90;3.70;;;;;;;31.66;82.93;99740.90;104707;1261;64027;-64
2023/07/20 11:24:49;;;;;;;5.60;3.30;;;;;;;31.76;82.21;99741.41;104833;1259;67728;-65